sensor_id;sensor_type;location;lat;lon;timestamp;pressure;altitude;pressure_sealevel;temperature;humidity
25947;BME280;13745;51.470;9.894;2023-03-29T00:00:17;99661.03;;;10.33;47.89
25947;BME280;13745;51.470;9.894;2023-03-29T00:03:03;99660.22;;;10.29;48.24
25947;BME280;13745;51.470;9.894;2023-03-29T00:05:49;99654.19;;;10.24;49.22
25947;BME280;13745;51.470;9.894;2023-03-29T00:08:34;99660.25;;;10.20;49.63
25947;BME280;13745;51.470;9.894;2023-03-29T00:11:21;99659.44;;;10.13;49.84
25947;BME280;13745;51.470;9.894;2023-03-29T00:14:06;99665.50;;;10.08;49.78
25947;BME280;13745;51.470;9.894;2023-03-29T00:16:51;99661.22;;;10.01;50.54
25947;BME280;13745;51.470;9.894;2023-03-29T00:19:37;99659.56;;;9.94;50.86
25947;BME280;13745;51.470;9.894;2023-03-29T00:22:23;99660.47;;;9.88;51.06
25947;BME280;13745;51.470;9.894;2023-03-29T00:25:09;99651.84;;;9.83;51.40
25947;BME280;13745;51.470;9.894;2023-03-29T00:27:54;99650.16;;;9.80;51.77
25947;BME280;13745;51.470;9.894;2023-03-29T00:30:40;99643.28;;;9.73;52.06
25947;BME280;13745;51.470;9.894;2023-03-29T00:33:25;99630.38;;;9.70;51.85
25947;BME280;13745;51.470;9.894;2023-03-29T00:36:12;99632.09;;;9.65;51.97
25947;BME280;13745;51.470;9.894;2023-03-29T00:38:57;99626.97;;;9.62;52.29
25947;BME280;13745;51.470;9.894;2023-03-29T00:41:43;99616.63;;;9.57;52.59
25947;BME280;13745;51.470;9.894;2023-03-29T00:44:52;99614.06;;;9.54;53.30
25947;BME280;13745;51.470;9.894;2023-03-29T00:47:41;99610.63;;;9.49;53.14
25947;BME280;13745;51.470;9.894;2023-03-29T00:50:29;99611.53;;;9.44;53.19
25947;BME280;13745;51.470;9.894;2023-03-29T00:53:20;99607.22;;;9.41;53.91
25947;BME280;13745;51.470;9.894;2023-03-29T00:56:11;99605.50;;;9.40;53.96
25947;BME280;13745;51.470;9.894;2023-03-29T00:59:01;99601.22;;;9.36;53.99
25947;BME280;13745;51.470;9.894;2023-03-29T01:01:49;99606.38;;;9.35;54.17
25947;BME280;13745;51.470;9.894;2023-03-29T01:04:41;99599.50;;;9.32;54.24
25947;BME280;13745;51.470;9.894;2023-03-29T01:07:36;99598.66;;;9.32;54.29
25947;BME280;13745;51.470;9.894;2023-03-29T01:10:30;99600.38;;;9.31;54.41
25947;BME280;13745;51.470;9.894;2023-03-29T01:13:19;99587.44;;;9.31;54.60
25947;BME280;13745;51.470;9.894;2023-03-29T01:16:11;99583.13;;;9.32;55.15
25947;BME280;13745;51.470;9.894;2023-03-29T01:18:58;99579.69;;;9.31;54.69
25947;BME280;13745;51.470;9.894;2023-03-29T01:21:48;99571.06;;;9.31;55.38
25947;BME280;13745;51.470;9.894;2023-03-29T01:24:41;99561.56;;;9.33;55.31
25947;BME280;13745;51.470;9.894;2023-03-29T01:27:46;99559.84;;;9.33;55.26
25947;BME280;13745;51.470;9.894;2023-03-29T01:30:37;99560.72;;;9.31;55.57
25947;BME280;13745;51.470;9.894;2023-03-29T01:33:27;99567.63;;;9.30;55.13
25947;BME280;13745;51.470;9.894;2023-03-29T01:36:17;99559.88;;;9.28;55.83
25947;BME280;13745;51.470;9.894;2023-03-29T01:39:05;99562.47;;;9.28;55.75
25947;BME280;13745;51.470;9.894;2023-03-29T01:42:00;99553.84;;;9.26;56.10
25947;BME280;13745;51.470;9.894;2023-03-29T01:44:54;99552.13;;;9.27;56.39
25947;BME280;13745;51.470;9.894;2023-03-29T01:47:45;99539.19;;;9.25;55.99
25947;BME280;13745;51.470;9.894;2023-03-29T01:50:37;99540.06;;;9.24;56.23
25947;BME280;13745;51.470;9.894;2023-03-29T01:53:28;99535.75;;;9.23;56.42
25947;BME280;13745;51.470;9.894;2023-03-29T01:56:18;99521.97;;;9.21;56.35
25947;BME280;13745;51.470;9.894;2023-03-29T01:59:09;99530.59;;;9.22;56.25
25947;BME280;13745;51.470;9.894;2023-03-29T02:01:59;99519.41;;;9.20;56.66
25947;BME280;13745;51.470;9.894;2023-03-29T02:04:48;99510.78;;;9.16;56.48
25947;BME280;13745;51.470;9.894;2023-03-29T02:07:35;99522.84;;;9.17;56.78
25947;BME280;13745;51.470;9.894;2023-03-29T02:10:22;99515.09;;;9.16;56.80
25947;BME280;13745;51.470;9.894;2023-03-29T02:13:08;99513.38;;;9.16;56.51
25947;BME280;13745;51.470;9.894;2023-03-29T02:15:53;99507.34;;;9.16;57.08
25947;BME280;13745;51.470;9.894;2023-03-29T02:18:43;99508.19;;;9.16;57.49
25947;BME280;13745;51.470;9.894;2023-03-29T02:21:33;99506.47;;;9.17;57.52
25947;BME280;13745;51.470;9.894;2023-03-29T02:24:22;99509.94;;;9.19;57.03
25947;BME280;13745;51.470;9.894;2023-03-29T02:27:08;99505.59;;;9.18;56.77
25947;BME280;13745;51.470;9.894;2023-03-29T02:29:53;99509.94;;;9.19;57.53
25947;BME280;13745;51.470;9.894;2023-03-29T02:32:46;99503.03;;;9.16;57.25
25947;BME280;13745;51.470;9.894;2023-03-29T02:35:39;99505.66;;;9.13;57.54
25947;BME280;13745;51.470;9.894;2023-03-29T02:38:25;99505.66;;;9.12;57.46
25947;BME280;13745;51.470;9.894;2023-03-29T02:41:11;99502.19;;;9.10;57.67
25947;BME280;13745;51.470;9.894;2023-03-29T02:43:57;99497.91;;;9.10;57.42
25947;BME280;13745;51.470;9.894;2023-03-29T02:46:45;99487.56;;;9.07;57.79
25947;BME280;13745;51.470;9.894;2023-03-29T02:49:34;99478.94;;;9.08;57.47
25947;BME280;13745;51.470;9.894;2023-03-29T02:52:24;99479.81;;;9.09;58.04
25947;BME280;13745;51.470;9.894;2023-03-29T02:55:15;99472.91;;;9.09;58.02
25947;BME280;13745;51.470;9.894;2023-03-29T02:58:02;99459.97;;;9.09;57.68
25947;BME280;13745;51.470;9.894;2023-03-29T03:00:52;99452.22;;;9.09;58.39
25947;BME280;13745;51.470;9.894;2023-03-29T03:03:37;99459.13;;;9.07;58.12
25947;BME280;13745;51.470;9.894;2023-03-29T03:06:22;99455.69;;;9.05;58.25
25947;BME280;13745;51.470;9.894;2023-03-29T03:09:09;99455.69;;;9.07;58.17
25947;BME280;13745;51.470;9.894;2023-03-29T03:11:57;99447.06;;;9.06;58.01
25947;BME280;13745;51.470;9.894;2023-03-29T03:14:42;99458.25;;;9.08;58.55
25947;BME280;13745;51.470;9.894;2023-03-29T03:17:28;99450.53;;;9.05;58.60
25947;BME280;13745;51.470;9.894;2023-03-29T03:20:15;99447.09;;;9.05;58.61
25947;BME280;13745;51.470;9.894;2023-03-29T03:23:01;99442.78;;;9.04;58.52
25947;BME280;13745;51.470;9.894;2023-03-29T03:25:48;99443.63;;;9.06;59.04
25947;BME280;13745;51.470;9.894;2023-03-29T03:28:33;99436.75;;;9.05;58.49
25947;BME280;13745;51.470;9.894;2023-03-29T03:31:21;99440.19;;;9.07;58.62
25947;BME280;13745;51.470;9.894;2023-03-29T03:34:27;99440.19;;;9.07;58.50
25947;BME280;13745;51.470;9.894;2023-03-29T03:37:14;99442.78;;;9.05;59.14
25947;BME280;13745;51.470;9.894;2023-03-29T03:39:59;99440.19;;;9.07;58.73
25947;BME280;13745;51.470;9.894;2023-03-29T03:42:48;99435.03;;;9.05;59.24
25947;BME280;13745;51.470;9.894;2023-03-29T03:45:34;99428.94;;;9.09;58.90
25947;BME280;13745;51.470;9.894;2023-03-29T03:48:32;99427.22;;;9.10;59.37
25947;BME280;13745;51.470;9.894;2023-03-29T03:51:36;99435.84;;;9.12;59.45
25947;BME280;13745;51.470;9.894;2023-03-29T03:54:21;99437.53;;;9.14;58.94
25947;BME280;13745;51.470;9.894;2023-03-29T03:57:42;99435.78;;;9.16;59.44
25947;BME280;13745;51.470;9.894;2023-03-29T04:00:33;99431.47;;;9.17;59.03
25947;BME280;13745;51.470;9.894;2023-03-29T04:03:36;99423.72;;;9.20;59.20
25947;BME280;13745;51.470;9.894;2023-03-29T04:06:22;99419.41;;;9.20;58.84
25947;BME280;13745;51.470;9.894;2023-03-29T04:09:27;99412.50;;;9.21;59.15
25947;BME280;13745;51.470;9.894;2023-03-29T04:12:27;99409.91;;;9.21;59.24
25947;BME280;13745;51.470;9.894;2023-03-29T04:15:12;99412.53;;;9.19;59.46
25947;BME280;13745;51.470;9.894;2023-03-29T04:18:06;99407.34;;;9.19;59.20
25947;BME280;13745;51.470;9.894;2023-03-29T04:20:57;99404.72;;;9.22;59.08
25947;BME280;13745;51.470;9.894;2023-03-29T04:23:44;99405.59;;;9.23;59.57
25947;BME280;13745;51.470;9.894;2023-03-29T04:26:30;99398.69;;;9.22;59.62
25947;BME280;13745;51.470;9.894;2023-03-29T04:29:26;99393.50;;;9.25;59.62
25947;BME280;13745;51.470;9.894;2023-03-29T04:32:21;99392.63;;;9.24;59.50
25947;BME280;13745;51.470;9.894;2023-03-29T04:35:27;99401.28;;;9.23;59.33
25947;BME280;13745;51.470;9.894;2023-03-29T04:38:12;99395.22;;;9.24;59.75
25947;BME280;13745;51.470;9.894;2023-03-29T04:41:00;99392.63;;;9.26;59.57
25947;BME280;13745;51.470;9.894;2023-03-29T04:44:06;99384.84;;;9.29;59.79
25947;BME280;13745;51.470;9.894;2023-03-29T04:46:52;99384.00;;;9.27;59.43
25947;BME280;13745;51.470;9.894;2023-03-29T04:49:57;99384.84;;;9.29;59.42
25947;BME280;13745;51.470;9.894;2023-03-29T04:52:54;99381.44;;;9.27;59.95
25947;BME280;13745;51.470;9.894;2023-03-29T04:55:40;99373.66;;;9.27;59.84
25947;BME280;13745;51.470;9.894;2023-03-29T04:58:28;99377.13;;;9.27;60.04
25947;BME280;13745;51.470;9.894;2023-03-29T05:01:14;99372.78;;;9.26;59.68
25947;BME280;13745;51.470;9.894;2023-03-29T05:04:06;99373.63;;;9.30;59.67
25947;BME280;13745;51.470;9.894;2023-03-29T05:07:00;99371.91;;;9.29;59.53
25947;BME280;13745;51.470;9.894;2023-03-29T05:09:48;99360.72;;;9.28;59.66
25947;BME280;13745;51.470;9.894;2023-03-29T05:12:33;99362.41;;;9.33;59.67
25947;BME280;13745;51.470;9.894;2023-03-29T05:15:18;99368.41;;;9.33;59.60
25947;BME280;13745;51.470;9.894;2023-03-29T05:18:03;99373.56;;;9.35;60.03
25947;BME280;13745;51.470;9.894;2023-03-29T05:20:49;99372.72;;;9.34;59.94
25947;BME280;13745;51.470;9.894;2023-03-29T05:23:36;99366.72;;;9.35;59.95
25947;BME280;13745;51.470;9.894;2023-03-29T05:26:43;99353.78;;;9.35;59.72
25947;BME280;13745;51.470;9.894;2023-03-29T05:29:30;99355.47;;;9.38;59.80
25947;BME280;13745;51.470;9.894;2023-03-29T05:32:36;99355.44;;;9.39;60.07
25947;BME280;13745;51.470;9.894;2023-03-29T05:35:23;99353.69;;;9.41;59.72
25947;BME280;13745;51.470;9.894;2023-03-29T05:38:09;99345.06;;;9.44;59.70
25947;BME280;13745;51.470;9.894;2023-03-29T05:40:55;99344.19;;;9.45;60.27
25947;BME280;13745;51.470;9.894;2023-03-29T05:44:00;99342.47;;;9.45;60.12
25947;BME280;13745;51.470;9.894;2023-03-29T05:46:46;99348.44;;;9.49;59.85
25947;BME280;13745;51.470;9.894;2023-03-29T05:49:34;99339.78;;;9.54;60.45
25947;BME280;13745;51.470;9.894;2023-03-29T05:52:26;99331.09;;;9.60;60.08
25947;BME280;13745;51.470;9.894;2023-03-29T05:55:11;99332.84;;;9.58;60.00
25947;BME280;13745;51.470;9.894;2023-03-29T05:57:57;99343.16;;;9.60;60.28
25947;BME280;13745;51.470;9.894;2023-03-29T06:00:49;99335.38;;;9.63;60.35
25947;BME280;13745;51.470;9.894;2023-03-29T06:03:53;99343.13;;;9.64;59.89
25947;BME280;13745;51.470;9.894;2023-03-29T06:06:43;99343.97;;;9.66;60.09
25947;BME280;13745;51.470;9.894;2023-03-29T06:09:29;99336.19;;;9.68;60.14
25947;BME280;13745;51.470;9.894;2023-03-29T06:12:21;99342.16;;;9.73;60.44
25947;BME280;13745;51.470;9.894;2023-03-29T06:15:16;99347.31;;;9.77;60.12
25947;BME280;13745;51.470;9.894;2023-03-29T06:18:07;99342.03;;;9.83;60.52
25947;BME280;13745;51.470;9.894;2023-03-29T06:20:55;99340.22;;;9.92;60.11
25947;BME280;13745;51.470;9.894;2023-03-29T06:23:40;99348.78;;;9.98;59.80
25947;BME280;13745;51.470;9.894;2023-03-29T06:26:25;99342.72;;;10.02;59.96
25947;BME280;13745;51.470;9.894;2023-03-29T06:29:11;99346.09;;;10.07;60.07
25947;BME280;13745;51.470;9.894;2023-03-29T06:31:58;99343.47;;;10.12;60.25
25947;BME280;13745;51.470;9.894;2023-03-29T06:35:11;99345.16;;;10.14;60.16
25947;BME280;13745;51.470;9.894;2023-03-29T06:37:57;99345.97;;;10.20;59.98
25947;BME280;13745;51.470;9.894;2023-03-29T06:41:08;99352.00;;;10.20;60.08
25947;BME280;13745;51.470;9.894;2023-03-29T06:44:13;99355.44;;;10.21;59.93
25947;BME280;13745;51.470;9.894;2023-03-29T06:47:11;99358.91;;;10.23;60.14
25947;BME280;13745;51.470;9.894;2023-03-29T06:49:56;99363.16;;;10.25;60.13
25947;BME280;13745;51.470;9.894;2023-03-29T06:52:50;99352.75;;;10.30;60.00
25947;BME280;13745;51.470;9.894;2023-03-29T06:55:36;99357.03;;;10.32;60.39
25947;BME280;13745;51.470;9.894;2023-03-29T06:58:44;99360.44;;;10.37;60.17
25947;BME280;13745;51.470;9.894;2023-03-29T07:01:45;99354.31;;;10.41;60.38
25947;BME280;13745;51.470;9.894;2023-03-29T07:04:41;99360.31;;;10.47;60.20
25947;BME280;13745;51.470;9.894;2023-03-29T07:07:36;99352.50;;;10.51;60.17
25947;BME280;13745;51.470;9.894;2023-03-29T07:10:57;99356.69;;;10.58;60.07
25947;BME280;13745;51.470;9.894;2023-03-29T07:14:04;99360.88;;;10.67;59.62
25947;BME280;13745;51.470;9.894;2023-03-29T07:16:50;99360.88;;;10.70;59.65
25947;BME280;13745;51.470;9.894;2023-03-29T07:19:45;99359.91;;;10.77;59.62
25947;BME280;13745;51.470;9.894;2023-03-29T07:23:01;99356.28;;;10.87;59.60
25947;BME280;13745;51.470;9.894;2023-03-29T07:25:47;99363.00;;;10.99;59.39
25947;BME280;13745;51.470;9.894;2023-03-29T07:28:35;99355.09;;;11.10;59.63
25947;BME280;13745;51.470;9.894;2023-03-29T07:31:22;99348.88;;;11.18;59.49
25947;BME280;13745;51.470;9.894;2023-03-29T07:34:13;99342.69;;;11.27;59.12
25947;BME280;13745;51.470;9.894;2023-03-29T07:37:00;99353.81;;;11.35;59.46
25947;BME280;13745;51.470;9.894;2023-03-29T07:39:45;99348.25;;;11.55;59.24
25947;BME280;13745;51.470;9.894;2023-03-29T07:42:56;99352.06;;;11.85;59.33
25947;BME280;13745;51.470;9.894;2023-03-29T07:45:45;99349.69;;;12.18;59.12
25947;BME280;13745;51.470;9.894;2023-03-29T07:48:32;99339.63;;;12.43;58.83
25947;BME280;13745;51.470;9.894;2023-03-29T07:51:22;99347.78;;;12.66;58.51
25947;BME280;13745;51.470;9.894;2023-03-29T07:54:18;99353.44;;;12.85;58.35
25947;BME280;13745;51.470;9.894;2023-03-29T07:57:09;99354.97;;;12.93;57.98
25947;BME280;13745;51.470;9.894;2023-03-29T07:59:58;99345.19;;;13.03;57.84
25947;BME280;13745;51.470;9.894;2023-03-29T08:02:49;99339.88;;;13.08;57.37
25947;BME280;13745;51.470;9.894;2023-03-29T08:05:35;99344.03;;;13.15;57.44
25947;BME280;13745;51.470;9.894;2023-03-29T08:08:26;99342.06;;;13.26;57.11
25947;BME280;13745;51.470;9.894;2023-03-29T08:11:15;99333.00;;;13.41;57.05
25947;BME280;13745;51.470;9.894;2023-03-29T08:14:15;99339.53;;;13.57;57.03
25947;BME280;13745;51.470;9.894;2023-03-29T08:17:21;99339.25;;;13.68;56.39
25947;BME280;13745;51.470;9.894;2023-03-29T08:20:11;99335.84;;;13.64;56.12
25947;BME280;13745;51.470;9.894;2023-03-29T08:22:59;99344.56;;;13.63;55.99
25947;BME280;13745;51.470;9.894;2023-03-29T08:26:03;99342.78;;;13.65;55.98
25947;BME280;13745;51.470;9.894;2023-03-29T08:28:48;99341.09;;;13.63;55.75
25947;BME280;13745;51.470;9.894;2023-03-29T08:31:35;99346.25;;;13.64;55.81
25947;BME280;13745;51.470;9.894;2023-03-29T08:34:20;99348.72;;;13.70;55.84
25947;BME280;13745;51.470;9.894;2023-03-29T08:37:29;99338.13;;;13.76;55.91
25947;BME280;13745;51.470;9.894;2023-03-29T08:40:18;99344.22;;;13.77;55.89
25947;BME280;13745;51.470;9.894;2023-03-29T08:43:22;99346.81;;;13.77;55.68
25947;BME280;13745;51.470;9.894;2023-03-29T08:46:32;99338.19;;;13.73;55.62
25947;BME280;13745;51.470;9.894;2023-03-29T08:49:42;99323.53;;;13.71;55.42
25947;BME280;13745;51.470;9.894;2023-03-29T08:52:35;99327.03;;;13.70;55.66
25947;BME280;13745;51.470;9.894;2023-03-29T08:55:38;99324.38;;;13.71;55.73
25947;BME280;13745;51.470;9.894;2023-03-29T08:58:57;99341.84;;;13.68;55.48
25947;BME280;13745;51.470;9.894;2023-03-29T09:01:52;99336.78;;;13.62;55.15
25947;BME280;13745;51.470;9.894;2023-03-29T09:04:39;99348.91;;;13.63;55.54
25947;BME280;13745;51.470;9.894;2023-03-29T09:07:49;99344.41;;;13.69;55.77
25947;BME280;13745;51.470;9.894;2023-03-29T09:10:39;99340.66;;;13.80;55.87
25947;BME280;13745;51.470;9.894;2023-03-29T09:13:34;99336.88;;;13.91;55.96
25947;BME280;13745;51.470;9.894;2023-03-29T09:16:25;99332.16;;;14.04;56.04
25947;BME280;13745;51.470;9.894;2023-03-29T09:19:24;99325.94;;;14.10;55.86
25947;BME280;13745;51.470;9.894;2023-03-29T09:22:16;99318.09;;;14.10;55.93
25947;BME280;13745;51.470;9.894;2023-03-29T09:25:12;99334.44;;;14.15;55.77
25947;BME280;13745;51.470;9.894;2023-03-29T09:28:11;99323.06;;;14.19;55.89
25947;BME280;13745;51.470;9.894;2023-03-29T09:31:12;99316.81;;;14.24;55.79
25947;BME280;13745;51.470;9.894;2023-03-29T09:34:01;99315.75;;;14.30;55.87
25947;BME280;13745;51.470;9.894;2023-03-29T09:37:08;99302.38;;;14.42;55.73
25947;BME280;13745;51.470;9.894;2023-03-29T09:39:57;99307.78;;;14.64;55.89
25947;BME280;13745;51.470;9.894;2023-03-29T09:42:58;99309.50;;;14.93;55.64
25947;BME280;13745;51.470;9.894;2023-03-29T09:45:49;99311.38;;;15.16;55.63
25947;BME280;13745;51.470;9.894;2023-03-29T09:48:38;99313.56;;;15.28;55.47
25947;BME280;13745;51.470;9.894;2023-03-29T09:51:26;99308.13;;;15.34;55.07
25947;BME280;13745;51.470;9.894;2023-03-29T09:54:13;99305.25;;;15.42;55.29
25947;BME280;13745;51.470;9.894;2023-03-29T09:57:21;99308.59;;;15.45;55.17
25947;BME280;13745;51.470;9.894;2023-03-29T10:00:09;99312.06;;;15.46;55.11
25947;BME280;13745;51.470;9.894;2023-03-29T10:03:00;99310.38;;;15.45;54.96
25947;BME280;13745;51.470;9.894;2023-03-29T10:06:09;99313.16;;;15.40;54.85
25947;BME280;13745;51.470;9.894;2023-03-29T10:08:57;99311.47;;;15.38;54.70
25947;BME280;13745;51.470;9.894;2023-03-29T10:12:10;99308.88;;;15.38;55.19
25947;BME280;13745;51.470;9.894;2023-03-29T10:14:55;99310.63;;;15.37;54.76
25947;BME280;13745;51.470;9.894;2023-03-29T10:17:41;99302.00;;;15.35;55.09
25947;BME280;13745;51.470;9.894;2023-03-29T10:20:29;99303.81;;;15.33;55.12
25947;BME280;13745;51.470;9.894;2023-03-29T10:23:17;99297.03;;;15.28;54.98
25947;BME280;13745;51.470;9.894;2023-03-29T10:26:03;99311.97;;;15.24;54.90
25947;BME280;13745;51.470;9.894;2023-03-29T10:28:51;99302.38;;;15.25;55.26
25947;BME280;13745;51.470;9.894;2023-03-29T10:31:37;99310.63;;;15.37;55.36
25947;BME280;13745;51.470;9.894;2023-03-29T10:34:26;99316.31;;;15.50;55.39
25947;BME280;13745;51.470;9.894;2023-03-29T10:37:12;99307.00;;;15.68;55.20
25947;BME280;13745;51.470;9.894;2023-03-29T10:39:59;99301.97;;;15.87;54.84
25947;BME280;13745;51.470;9.894;2023-03-29T10:42:46;99295.25;;;16.03;55.34
25947;BME280;13745;51.470;9.894;2023-03-29T10:45:34;99285.88;;;16.21;54.96
25947;BME280;13745;51.470;9.894;2023-03-29T10:48:23;99287.28;;;16.29;54.66
25947;BME280;13745;51.470;9.894;2023-03-29T10:51:12;99283.31;;;16.43;54.75
25947;BME280;13745;51.470;9.894;2023-03-29T10:53:58;99283.41;;;16.62;54.44
25947;BME280;13745;51.470;9.894;2023-03-29T10:56:46;99276.91;;;16.73;54.41
25947;BME280;13745;51.470;9.894;2023-03-29T10:59:38;99275.78;;;16.79;54.44
25947;BME280;13745;51.470;9.894;2023-03-29T11:02:45;99268.75;;;17.01;54.06
25947;BME280;13745;51.470;9.894;2023-03-29T11:05:37;99279.53;;;17.36;53.75
25947;BME280;13745;51.470;9.894;2023-03-29T11:08:41;99276.75;;;17.59;53.59
25947;BME280;13745;51.470;9.894;2023-03-29T11:11:55;99262.19;;;17.93;53.41
25947;BME280;13745;51.470;9.894;2023-03-29T11:14:50;99265.97;;;18.06;53.03
25947;BME280;13745;51.470;9.894;2023-03-29T11:17:48;99270.47;;;18.03;52.84
25947;BME280;13745;51.470;9.894;2023-03-29T11:20:40;99275.38;;;17.91;52.43
25947;BME280;13745;51.470;9.894;2023-03-29T11:23:37;99271.53;;;17.80;52.62
25947;BME280;13745;51.470;9.894;2023-03-29T11:26:31;99270.34;;;17.66;52.63
25947;BME280;13745;51.470;9.894;2023-03-29T11:29:23;99260.59;;;17.50;52.71
25947;BME280;13745;51.470;9.894;2023-03-29T11:32:14;99264.47;;;17.41;52.89
25947;BME280;13745;51.470;9.894;2023-03-29T11:35:15;99259.47;;;17.35;52.83
25947;BME280;13745;51.470;9.894;2023-03-29T11:38:12;99265.56;;;17.35;53.06
25947;BME280;13745;51.470;9.894;2023-03-29T11:41:06;99256.94;;;17.33;52.87
25947;BME280;13745;51.470;9.894;2023-03-29T11:43:58;99246.59;;;17.30;52.99
25947;BME280;13745;51.470;9.894;2023-03-29T11:46:48;99247.63;;;17.26;53.18
25947;BME280;13745;51.470;9.894;2023-03-29T11:49:40;99233.81;;;17.23;53.28
25947;BME280;13745;51.470;9.894;2023-03-29T11:52:28;99241.81;;;17.40;53.29
25947;BME280;13745;51.470;9.894;2023-03-29T11:55:16;99242.63;;;17.61;53.33
25947;BME280;13745;51.470;9.894;2023-03-29T11:58:07;99244.84;;;17.70;53.28
25947;BME280;13745;51.470;9.894;2023-03-29T12:00:57;99253.56;;;17.71;52.87
25947;BME280;13745;51.470;9.894;2023-03-29T12:03:45;99244.19;;;17.65;53.11
25947;BME280;13745;51.470;9.894;2023-03-29T12:06:37;99240.91;;;17.60;52.97
25947;BME280;13745;51.470;9.894;2023-03-29T12:09:29;99236.84;;;17.53;52.80
25947;BME280;13745;51.470;9.894;2023-03-29T12:12:18;99232.88;;;17.44;52.87
25947;BME280;13745;51.470;9.894;2023-03-29T12:15:14;99239.28;;;17.37;53.44
25947;BME280;13745;51.470;9.894;2023-03-29T12:18:06;99226.94;;;17.40;53.45
25947;BME280;13745;51.470;9.894;2023-03-29T12:20:57;99231.09;;;17.45;53.68
25947;BME280;13745;51.470;9.894;2023-03-29T12:23:44;99222.53;;;17.41;53.31
25947;BME280;13745;51.470;9.894;2023-03-29T12:26:50;99218.47;;;17.34;53.34
25947;BME280;13745;51.470;9.894;2023-03-29T12:29:54;99229.22;;;17.28;53.33
25947;BME280;13745;51.470;9.894;2023-03-29T12:32:56;99213.78;;;17.22;53.74
25947;BME280;13745;51.470;9.894;2023-03-29T12:36:18;99210.88;;;17.28;53.90
25947;BME280;13745;51.470;9.894;2023-03-29T12:39:42;99216.44;;;17.40;53.72
25947;BME280;13745;51.470;9.894;2023-03-29T12:42:47;99219.75;;;17.64;54.07
25947;BME280;13745;51.470;9.894;2023-03-29T12:45:51;99210.88;;;17.87;53.77
25947;BME280;13745;51.470;9.894;2023-03-29T12:48:39;99203.56;;;18.13;53.63
25947;BME280;13745;51.470;9.894;2023-03-29T12:51:28;99207.34;;;18.43;53.23
25947;BME280;13745;51.470;9.894;2023-03-29T12:54:17;99207.50;;;18.76;53.09
25947;BME280;13745;51.470;9.894;2023-03-29T12:57:18;99210.06;;;19.13;52.43
25947;BME280;13745;51.470;9.894;2023-03-29T13:00:17;99201.16;;;19.32;52.30
25947;BME280;13745;51.470;9.894;2023-03-29T13:03:19;99195.63;;;19.54;51.86
25947;BME280;13745;51.470;9.894;2023-03-29T13:06:08;99200.78;;;19.73;51.80
25947;BME280;13745;51.470;9.894;2023-03-29T13:08:58;99194.38;;;19.95;51.10
25947;BME280;13745;51.470;9.894;2023-03-29T13:11:50;99186.97;;;20.01;50.83
25947;BME280;13745;51.470;9.894;2023-03-29T13:14:39;99178.63;;;20.09;50.86
25947;BME280;13745;51.470;9.894;2023-03-29T13:17:32;99176.72;;;20.12;51.04
25947;BME280;13745;51.470;9.894;2023-03-29T13:20:27;99186.97;;;20.17;50.87
25947;BME280;13745;51.470;9.894;2023-03-29T13:23:31;99166.59;;;20.20;50.99
25947;BME280;13745;51.470;9.894;2023-03-29T13:26:29;99161.06;;;20.25;50.65
25947;BME280;13745;51.470;9.894;2023-03-29T13:29:34;99175.06;;;20.26;50.54
25947;BME280;13745;51.470;9.894;2023-03-29T13:32:39;99154.53;;;20.16;50.54
25947;BME280;13745;51.470;9.894;2023-03-29T13:35:36;99145.69;;;20.02;50.63
25947;BME280;13745;51.470;9.894;2023-03-29T13:38:27;99155.03;;;19.91;50.79
25947;BME280;13745;51.470;9.894;2023-03-29T13:41:32;99136.72;;;19.90;50.73
25947;BME280;13745;51.470;9.894;2023-03-29T13:44:37;99128.16;;;19.86;50.73
25947;BME280;13745;51.470;9.894;2023-03-29T13:47:41;99130.53;;;19.91;51.04
25947;BME280;13745;51.470;9.894;2023-03-29T13:50:33;99132.22;;;19.92;51.17
25947;BME280;13745;51.470;9.894;2023-03-29T13:53:25;99133.91;;;19.93;51.24
25947;BME280;13745;51.470;9.894;2023-03-29T13:56:17;99130.19;;;19.97;51.06
25947;BME280;13745;51.470;9.894;2023-03-29T13:59:10;99134.41;;;20.00;51.10
25947;BME280;13745;51.470;9.894;2023-03-29T14:01:57;99125.25;;;20.07;51.00
25947;BME280;13745;51.470;9.894;2023-03-29T14:04:45;99139.59;;;20.17;50.89
25947;BME280;13745;51.470;9.894;2023-03-29T14:07:32;99122.94;;;20.16;50.59
25947;BME280;13745;51.470;9.894;2023-03-29T14:10:23;99122.19;;;20.14;50.69
25947;BME280;13745;51.470;9.894;2023-03-29T14:13:11;99121.16;;;20.17;50.78
25947;BME280;13745;51.470;9.894;2023-03-29T14:15:58;99119.38;;;20.17;50.67
25947;BME280;13745;51.470;9.894;2023-03-29T14:18:47;99121.25;;;20.15;50.63
25947;BME280;13745;51.470;9.894;2023-03-29T14:21:34;99119.75;;;20.11;50.46
25947;BME280;13745;51.470;9.894;2023-03-29T14:24:20;99112.09;;;20.07;50.18
25947;BME280;13745;51.470;9.894;2023-03-29T14:27:07;99108.09;;;20.00;50.42
25947;BME280;13745;51.470;9.894;2023-03-29T14:29:55;99110.22;;;19.93;50.51
25947;BME280;13745;51.470;9.894;2023-03-29T14:32:40;99115.66;;;19.90;50.69
25947;BME280;13745;51.470;9.894;2023-03-29T14:35:27;99103.63;;;19.86;50.74
25947;BME280;13745;51.470;9.894;2023-03-29T14:38:13;99106.59;;;19.80;50.63
25947;BME280;13745;51.470;9.894;2023-03-29T14:41:00;99102.78;;;19.70;50.75
25947;BME280;13745;51.470;9.894;2023-03-29T14:43:46;99099.56;;;19.64;50.67
25947;BME280;13745;51.470;9.894;2023-03-29T14:46:33;99107.00;;;19.56;51.09
25947;BME280;13745;51.470;9.894;2023-03-29T14:49:21;99094.25;;;19.49;50.89
25947;BME280;13745;51.470;9.894;2023-03-29T14:52:09;99105.94;;;19.43;51.12
25947;BME280;13745;51.470;9.894;2023-03-29T14:54:58;99100.00;;;19.40;51.30
25947;BME280;13745;51.470;9.894;2023-03-29T14:57:46;99100.25;;;19.35;51.39
25947;BME280;13745;51.470;9.894;2023-03-29T15:00:39;99090.75;;;19.32;51.49
25947;BME280;13745;51.470;9.894;2023-03-29T15:03:27;99089.91;;;19.32;51.43
25947;BME280;13745;51.470;9.894;2023-03-29T15:06:12;99088.28;;;19.29;51.72
25947;BME280;13745;51.470;9.894;2023-03-29T15:08:58;99094.63;;;19.25;51.66
25947;BME280;13745;51.470;9.894;2023-03-29T15:11:50;99094.03;;;19.20;51.72
25947;BME280;13745;51.470;9.894;2023-03-29T15:14:35;99099.44;;;19.17;51.63
25947;BME280;13745;51.470;9.894;2023-03-29T15:17:27;99094.44;;;19.13;51.98